Time;durP1;ratioP1;P1;durP2;ratioP2;P2;SDS_P1;SDS_P2;PMS_P1;PMS_P2;Temp;Humidity;BMP_temperature;BMP_pressure;BME280_temperature;BME280_humidity;BME280_pressure;Samples;Min_cycle;Max_cycle;Signal;HPM_P1;HPM_P2
2020/12/14 00:00:17;;;;;;;99.32;29.85;;;;;;;;;;8279134;28;20048;-74
2020/12/14 00:04:20;;;;;;;58.60;21.17;;;;;;;;;;8277587;28;20506;-74
2020/12/14 00:08:23;;;;;;;52.33;18.88;;;;;;;;;;8277830;28;20053;-74
2020/12/14 00:12:26;;;;;;;45.25;17.85;;;;;;;;;;8277849;28;20459;-74
2020/12/14 00:16:29;;;;;;;58.17;21.02;;;;;;;;;;8279383;28;20363;-73
2020/12/14 00:20:33;;;;;;;41.60;19.05;;;;;;;;;;8277332;28;20068;-73
2020/12/14 00:24:36;;;;;;;74.15;24.58;;;;;;;;;;8278977;28;20360;-74
2020/12/14 00:28:39;;;;;;;44.58;18.30;;;;;;;;;;8259733;28;20538;-74
2020/12/14 00:32:42;;;;;;;49.42;16.48;;;;;;;;;;8278099;28;20364;-74
2020/12/14 00:36:45;;;;;;;38.10;16.60;;;;;;;;;;8277936;28;20083;-74
2020/12/14 00:40:48;;;;;;;44.53;16.00;;;;;;;;;;8277548;28;20071;-74
2020/12/14 00:44:51;;;;;;;37.08;15.95;;;;;;;;;;8278146;28;20378;-73
2020/12/14 00:48:54;;;;;;;54.08;19.25;;;;;;;;;;8242517;28;20622;-74
2020/12/14 00:52:57;;;;;;;44.33;17.85;;;;;;;;;;8276192;28;20451;-73
2020/12/14 00:57:01;;;;;;;47.40;18.60;;;;;;;;;;8277370;28;20048;-74
2020/12/14 01:01:04;;;;;;;57.42;21.60;;;;;;;;;;8277089;28;20549;-74
2020/12/14 01:05:06;;;;;;;63.72;20.67;;;;;;;;;;8277152;28;20394;-73
2020/12/14 01:09:09;;;;;;;57.90;21.33;;;;;;;;;;8277431;28;20509;-74
2020/12/14 01:13:12;;;;;;;86.35;28.88;;;;;;;;;;8276974;28;20478;-74
2020/12/14 01:17:15;;;;;;;47.22;18.40;;;;;;;;;;8276034;28;20071;-74
2020/12/14 01:21:23;;;;;;;52.50;20.67;;;;;;;;;;8276852;28;20642;-74
2020/12/14 01:25:26;;;;;;;46.17;19.60;;;;;;;;;;8274945;28;20379;-73
2020/12/14 01:29:28;;;;;;;47.85;19.10;;;;;;;;;;8276692;28;20534;-74
2020/12/14 01:33:31;;;;;;;44.17;16.23;;;;;;;;;;8276127;28;20577;-74
2020/12/14 01:37:37;;;;;;;38.47;17.42;;;;;;;;;;8276299;28;20485;-73
2020/12/14 01:41:39;;;;;;;41.83;15.57;;;;;;;;;;8276018;28;20506;-74
2020/12/14 01:45:42;;;;;;;51.33;17.45;;;;;;;;;;8275964;28;20056;-74
2020/12/14 01:49:45;;;;;;;42.00;17.88;;;;;;;;;;8274493;28;20634;-73
2020/12/14 01:53:50;;;;;;;39.45;16.77;;;;;;;;;;8274088;28;20480;-73
2020/12/14 01:57:53;;;;;;;43.42;19.85;;;;;;;;;;8273891;28;20510;-73
2020/12/14 02:01:56;;;;;;;45.92;18.33;;;;;;;;;;8275525;28;20551;-74
2020/12/14 02:06:00;;;;;;;49.72;19.33;;;;;;;;;;8272938;28;20060;-74
2020/12/14 02:10:03;;;;;;;53.70;19.83;;;;;;;;;;8275249;28;20485;-74
2020/12/14 02:14:06;;;;;;;50.30;21.38;;;;;;;;;;8275078;28;20078;-74
2020/12/14 02:18:09;;;;;;;54.80;21.48;;;;;;;;;;8274818;28;20040;-74
2020/12/14 02:22:15;;;;;;;49.78;20.27;;;;;;;;;;8274983;28;20052;-74
2020/12/14 02:26:18;;;;;;;55.60;19.67;;;;;;;;;;8275084;28;20482;-73
2020/12/14 02:30:20;;;;;;;44.38;18.58;;;;;;;;;;8275641;28;20064;-74
2020/12/14 02:34:23;;;;;;;44.78;19.17;;;;;;;;;;8273484;28;20467;-73
2020/12/14 02:38:26;;;;;;;177.50;65.45;;;;;;;;;;8275396;28;20407;-74
2020/12/14 02:42:30;;;;;;;115.65;42.42;;;;;;;;;;8275340;28;20486;-74
2020/12/14 02:46:32;;;;;;;135.55;49.92;;;;;;;;;;8275065;28;20463;-74
2020/12/14 02:50:36;;;;;;;70.63;26.50;;;;;;;;;;8274407;28;20349;-74
2020/12/14 02:54:40;;;;;;;60.80;22.85;;;;;;;;;;8273212;28;20463;-74
2020/12/14 02:58:44;;;;;;;57.03;21.13;;;;;;;;;;8272867;28;20037;-73
2020/12/14 03:02:47;;;;;;;55.30;20.70;;;;;;;;;;8274954;28;20501;-73
2020/12/14 03:06:50;;;;;;;58.13;21.17;;;;;;;;;;8274188;28;20455;-74
2020/12/14 03:10:54;;;;;;;49.45;21.67;;;;;;;;;;8273064;28;20497;-74
2020/12/14 03:14:56;;;;;;;58.47;22.02;;;;;;;;;;8274406;28;20451;-74
2020/12/14 03:19:02;;;;;;;54.33;19.88;;;;;;;;;;8273791;28;20036;-74
2020/12/14 03:23:05;;;;;;;60.05;21.80;;;;;;;;;;8274760;28;20375;-73
2020/12/14 03:27:08;;;;;;;63.95;20.75;;;;;;;;;;8272918;28;20551;-73
2020/12/14 03:31:11;;;;;;;64.28;22.02;;;;;;;;;;8273994;28;20493;-74
2020/12/14 03:35:15;;;;;;;59.88;22.08;;;;;;;;;;8255625;28;20533;-74
2020/12/14 03:39:17;;;;;;;65.32;23.63;;;;;;;;;;8274491;28;20489;-74
2020/12/14 03:43:20;;;;;;;67.93;23.13;;;;;;;;;;8278102;28;20394;-73
2020/12/14 03:47:30;;;;;;;65.65;22.45;;;;;;;;;;8281371;28;20402;-74
2020/12/14 03:51:33;;;;;;;64.50;22.70;;;;;;;;;;8278314;28;20510;-73
2020/12/14 03:55:36;;;;;;;59.60;23.83;;;;;;;;;;8279557;28;20344;-74
2020/12/14 03:59:39;;;;;;;61.47;22.52;;;;;;;;;;8227936;28;20490;-73
2020/12/14 04:03:42;;;;;;;59.53;23.23;;;;;;;;;;8278288;28;20371;-73
2020/12/14 04:07:47;;;;;;;65.53;22.98;;;;;;;;;;8276439;28;20534;-74
2020/12/14 04:11:52;;;;;;;71.03;23.73;;;;;;;;;;8279058;28;20052;-74
2020/12/14 04:15:55;;;;;;;66.05;25.10;;;;;;;;;;8277315;28;20053;-74
2020/12/14 04:19:58;;;;;;;72.00;24.83;;;;;;;;;;8277460;28;20367;-73
2020/12/14 04:24:05;;;;;;;72.88;29.30;;;;;;;;;;8276876;28;20506;-74
2020/12/14 04:28:08;;;;;;;74.65;26.05;;;;;;;;;;8278108;28;20500;-74
2020/12/14 04:32:11;;;;;;;67.13;26.23;;;;;;;;;;8279572;28;20383;-74
2020/12/14 04:36:14;;;;;;;72.20;25.55;;;;;;;;;;8277251;28;20451;-74
2020/12/14 04:40:18;;;;;;;74.25;25.27;;;;;;;;;;8278673;28;20434;-74
2020/12/14 04:44:22;;;;;;;242.18;52.22;;;;;;;;;;8276829;28;20430;-74
2020/12/14 04:48:25;;;;;;;570.45;126.43;;;;;;;;;;8276668;28;20379;-74
2020/12/14 04:52:30;;;;;;;371.42;82.35;;;;;;;;;;8278156;28;20614;-74
2020/12/14 04:56:39;;;;;;;473.85;97.03;;;;;;;;;;8276323;28;20044;-74
2020/12/14 05:00:42;;;;;;;113.55;36.05;;;;;;;;;;8277902;28;20483;-74
2020/12/14 05:04:45;;;;;;;105.40;33.15;;;;;;;;;;8261386;28;20498;-74
2020/12/14 05:08:48;;;;;;;80.10;27.17;;;;;;;;;;8275425;28;20462;-74
2020/12/14 05:12:52;;;;;;;82.25;26.13;;;;;;;;;;8250427;28;20470;-74
2020/12/14 05:16:55;;;;;;;69.45;23.83;;;;;;;;;;8310493;28;20429;-74
2020/12/14 05:20:59;;;;;;;62.20;22.63;;;;;;;;;;8309607;28;20463;-74
2020/12/14 05:25:02;;;;;;;74.97;24.70;;;;;;;;;;8309605;28;20482;-74
2020/12/14 05:29:14;;;;;;;68.57;23.88;;;;;;;;;;8309317;28;20634;-74
2020/12/14 05:33:23;;;;;;;68.15;25.67;;;;;;;;;;8269042;27;20363;-74
2020/12/14 05:37:25;;;;;;;;;;;;;;;;;;8308945;28;20458;-74
2020/12/14 05:41:29;;;;;;;200.50;43.22;;;;;;;;;;8309517;28;20246;-74
2020/12/14 05:45:31;;;;;;;57.80;23.75;;;;;;;;;;8309501;28;20478;-74
2020/12/14 05:49:35;;;;;;;105.25;29.65;;;;;;;;;;8308632;28;20074;-74
2020/12/14 05:53:53;;;;;;;90.95;30.13;;;;;;;;;;8309153;28;20387;-74
2020/12/14 05:58:01;;;;;;;356.50;69.53;;;;;;;;;;8307280;28;20048;-74
2020/12/14 06:02:05;;;;;;;66.85;25.30;;;;;;;;;;8307121;28;20622;-74
2020/12/14 06:06:09;;;;;;;71.93;25.65;;;;;;;;;;8308828;28;20358;-74
2020/12/14 06:10:14;;;;;;;76.47;25.83;;;;;;;;;;8307224;28;20622;-74
2020/12/14 06:14:21;;;;;;;69.78;28.13;;;;;;;;;;8306762;28;20501;-73
2020/12/14 06:18:28;;;;;;;77.93;25.88;;;;;;;;;;8307121;28;20387;-74
2020/12/14 06:22:32;;;;;;;66.78;26.13;;;;;;;;;;8306669;28;20067;-74
2020/12/14 06:26:36;;;;;;;70.57;25.95;;;;;;;;;;8307103;28;20669;-74
2020/12/14 06:30:40;;;;;;;81.93;25.55;;;;;;;;;;8307736;28;20054;-74
2020/12/14 06:34:43;;;;;;;79.47;26.63;;;;;;;;;;8307774;28;20380;-74
2020/12/14 06:38:49;;;;;;;80.13;27.45;;;;;;;;;;8307774;28;20051;-74
2020/12/14 06:42:52;;;;;;;81.50;26.23;;;;;;;;;;8307994;28;20048;-74
2020/12/14 06:47:12;;;;;;;72.43;25.70;;;;;;;;;;8305994;28;20432;-74
2020/12/14 06:51:16;;;;;;;70.97;28.15;;;;;;;;;;8305819;28;20052;-74
2020/12/14 06:55:45;;;;;;;70.78;25.50;;;;;;;;;;8307872;28;20683;-74
2020/12/14 06:59:54;;;;;;;70.22;25.52;;;;;;;;;;8179134;27;20482;-74
2020/12/14 07:03:57;;;;;;;68.18;23.92;;;;;;;;;;8339535;28;20066;-74
2020/12/14 07:08:00;;;;;;;69.88;24.20;;;;;;;;;;8307254;28;20458;-74
2020/12/14 07:12:11;;;;;;;67.80;23.45;;;;;;;;;;8307402;28;20355;-74
2020/12/14 07:16:16;;;;;;;74.68;24.90;;;;;;;;;;8237723;27;20061;-75
2020/12/14 07:20:19;;;;;;;68.80;23.88;;;;;;;;;;8321139;28;20618;-74
2020/12/14 07:24:30;;;;;;;66.97;24.45;;;;;;;;;;8313235;28;20458;-74
2020/12/14 07:28:51;;;;;;;65.13;22.30;;;;;;;;;;8313021;28;20514;-74
2020/12/14 07:32:54;;;;;;;67.32;23.83;;;;;;;;;;8311120;28;20512;-74
2020/12/14 07:36:57;;;;;;;67.45;23.98;;;;;;;;;;8311634;28;20390;-74
2020/12/14 07:41:07;;;;;;;58.22;23.30;;;;;;;;;;8312329;28;20423;-73
2020/12/14 07:45:20;;;;;;;61.72;24.40;;;;;;;;;;8267570;27;20370;-74
2020/12/14 07:49:24;;;;;;;58.03;24.10;;;;;;;;;;8295422;28;20374;-74
2020/12/14 07:53:27;;;;;;;66.60;22.95;;;;;;;;;;8310782;28;20500;-73
2020/12/14 07:57:32;;;;;;;65.32;24.40;;;;;;;;;;8310397;28;20374;-74
2020/12/14 08:01:35;;;;;;;59.05;21.45;;;;;;;;;;8311770;28;20378;-73
2020/12/14 08:05:38;;;;;;;57.13;21.13;;;;;;;;;;8311826;28;20459;-73
2020/12/14 08:09:45;;;;;;;59.85;21.17;;;;;;;;;;8312377;28;20386;-74
2020/12/14 08:13:51;;;;;;;58.28;22.77;;;;;;;;;;8312221;28;20078;-73
2020/12/14 08:17:54;;;;;;;57.28;23.17;;;;;;;;;;8310366;28;20482;-73
2020/12/14 08:22:07;;;;;;;62.78;26.50;;;;;;;;;;8309943;28;20633;-73
2020/12/14 08:26:12;;;;;;;61.42;26.60;;;;;;;;;;8311233;28;20493;-73
2020/12/14 08:30:18;;;;;;;81.72;28.60;;;;;;;;;;8309554;28;20044;-73
2020/12/14 08:34:31;;;;;;;66.57;26.67;;;;;;;;;;8309825;28;20394;-73
2020/12/14 08:38:35;;;;;;;67.13;24.35;;;;;;;;;;8309746;28;20044;-73
2020/12/14 08:42:38;;;;;;;49.17;20.95;;;;;;;;;;8310912;28;20048;-73
2020/12/14 08:46:41;;;;;;;52.70;20.75;;;;;;;;;;8309574;28;20078;-73
2020/12/14 08:50:44;;;;;;;49.67;20.33;;;;;;;;;;8292508;28;20359;-73
2020/12/14 08:54:56;;;;;;;46.50;18.40;;;;;;;;;;8310960;28;20071;-72
2020/12/14 08:59:01;;;;;;;55.65;22.58;;;;;;;;;;8256655;27;20348;-73
2020/12/14 09:03:04;;;;;;;52.00;21.63;;;;;;;;;;8181804;27;20538;-72
2020/12/14 09:07:07;;;;;;;44.05;20.65;;;;;;;;;;8150623;28;20052;-73
2020/12/14 09:11:10;;;;;;;55.22;22.73;;;;;;;;;;8274678;28;20377;-73
2020/12/14 09:15:15;;;;;;;52.70;23.15;;;;;;;;;;8309830;28;20622;-73
2020/12/14 09:19:24;;;;;;;59.45;26.38;;;;;;;;;;8310004;28;20485;-73
2020/12/14 09:23:30;;;;;;;;;;;;;;;;;;8310456;28;20074;-73
2020/12/14 09:27:33;;;;;;;59.47;26.02;;;;;;;;;;8307982;28;20243;-72
2020/12/14 09:31:36;;;;;;;54.80;22.10;;;;;;;;;;8308736;28;20052;-73
2020/12/14 09:35:40;;;;;;;50.50;21.27;;;;;;;;;;8270491;28;20437;-73
2020/12/14 09:39:43;;;;;;;56.75;21.23;;;;;;;;;;8253474;28;20048;-73
2020/12/14 09:43:47;;;;;;;50.78;23.33;;;;;;;;;;8254096;28;20037;-72
2020/12/14 09:47:50;;;;;;;56.25;24.48;;;;;;;;;;8270950;28;20482;-73
2020/12/14 09:51:53;;;;;;;47.30;21.55;;;;;;;;;;8269948;28;20052;-74
2020/12/14 09:56:00;;;;;;;54.55;22.35;;;;;;;;;;8270451;28;20376;-73
2020/12/14 10:00:20;;;;;;;51.38;21.48;;;;;;;;;;8240302;28;20610;-73
2020/12/14 10:04:33;;;;;;;52.92;23.13;;;;;;;;;;8259281;28;20048;-73
2020/12/14 10:08:37;;;;;;;53.50;24.08;;;;;;;;;;8307926;28;20070;-72
2020/12/14 10:12:41;;;;;;;55.75;22.38;;;;;;;;;;8274482;28;20066;-73
2020/12/14 10:16:48;;;;;;;51.35;22.75;;;;;;;;;;8308038;28;20390;-73
2020/12/14 10:20:51;;;;;;;48.97;23.52;;;;;;;;;;8306887;28;20070;-73
2020/12/14 10:24:57;;;;;;;44.35;19.73;;;;;;;;;;8308570;28;20048;-73
2020/12/14 10:29:00;;;;;;;53.92;20.95;;;;;;;;;;8306597;28;20374;-73
2020/12/14 10:33:05;;;;;;;51.28;21.20;;;;;;;;;;8306795;28;20382;-73
2020/12/14 10:37:09;;;;;;;50.28;21.33;;;;;;;;;;8290075;28;20060;-73
2020/12/14 10:41:12;;;;;;;46.05;21.35;;;;;;;;;;8306396;28;20074;-72
2020/12/14 10:45:15;;;;;;;43.28;19.25;;;;;;;;;;8307879;28;20052;-73
2020/12/14 10:49:19;;;;;;;48.83;21.45;;;;;;;;;;8312050;28;20075;-73
2020/12/14 10:53:22;;;;;;;45.55;20.88;;;;;;;;;;8314833;28;20420;-73
2020/12/14 10:57:25;;;;;;;43.53;20.67;;;;;;;;;;8314108;28;20520;-73
2020/12/14 11:01:29;;;;;;;47.95;20.67;;;;;;;;;;8296976;28;20377;-73
2020/12/14 11:05:32;;;;;;;46.72;18.55;;;;;;;;;;8314103;28;20527;-73
2020/12/14 11:09:36;;;;;;;71.43;25.42;;;;;;;;;;8314263;28;20052;-73
2020/12/14 11:13:39;;;;;;;54.30;25.02;;;;;;;;;;8313951;28;20379;-73
2020/12/14 11:17:45;;;;;;;39.13;18.45;;;;;;;;;;8314165;28;20490;-73
2020/12/14 11:22:07;;;;;;;36.40;17.30;;;;;;;;;;8311857;28;20482;-72
2020/12/14 11:26:18;;;;;;;46.15;21.52;;;;;;;;;;8313851;28;20370;-73
2020/12/14 11:30:21;;;;;;;58.45;23.83;;;;;;;;;;8296063;28;20374;-73
2020/12/14 11:34:24;;;;;;;68.03;26.90;;;;;;;;;;8313251;28;20079;-73
2020/12/14 11:38:27;;;;;;;57.55;25.08;;;;;;;;;;8293397;28;20502;-73
2020/12/14 11:42:30;;;;;;;50.35;22.80;;;;;;;;;;8295572;28;20386;-73
2020/12/14 11:46:33;;;;;;;55.08;24.85;;;;;;;;;;8311490;28;20504;-73
2020/12/14 11:50:36;;;;;;;55.63;23.88;;;;;;;;;;8311358;28;20097;-72
2020/12/14 11:54:38;;;;;;;47.03;22.73;;;;;;;;;;8313099;28;20052;-73
2020/12/14 11:58:44;;;;;;;47.72;22.35;;;;;;;;;;8314834;28;20405;-73
2020/12/14 12:02:48;;;;;;;47.42;22.38;;;;;;;;;;8343484;27;20501;-73
2020/12/14 12:06:51;;;;;;;43.63;20.70;;;;;;;;;;8310551;28;20509;-73
2020/12/14 12:11:08;;;;;;;52.97;22.35;;;;;;;;;;8312668;28;20478;-72
2020/12/14 12:15:15;;;;;;;105.10;38.65;;;;;;;;;;8312458;28;20593;-73
2020/12/14 12:19:18;;;;;;;44.90;19.85;;;;;;;;;;8310643;28;20066;-73
2020/12/14 12:23:21;;;;;;;49.25;23.23;;;;;;;;;;8311602;28;20497;-73
2020/12/14 12:27:24;;;;;;;48.33;21.45;;;;;;;;;;8291941;28;20169;-73
2020/12/14 12:31:27;;;;;;;47.83;21.33;;;;;;;;;;8310185;28;20378;-73
2020/12/14 12:35:30;;;;;;;47.13;21.42;;;;;;;;;;8311902;28;20470;-72
2020/12/14 12:39:33;;;;;;;42.92;20.17;;;;;;;;;;8309357;28;20651;-73
2020/12/14 12:43:37;;;;;;;43.28;18.83;;;;;;;;;;8310534;28;20060;-72
2020/12/14 12:47:40;;;;;;;42.15;19.25;;;;;;;;;;8310530;28;20613;-73
2020/12/14 12:51:47;;;;;;;42.72;20.38;;;;;;;;;;8309469;28;20482;-73
2020/12/14 12:55:52;;;;;;;30.98;16.42;;;;;;;;;;8310234;28;20478;-73
2020/12/14 12:59:55;;;;;;;31.63;14.93;;;;;;;;;;8310594;28;20079;-73
2020/12/14 13:03:58;;;;;;;20.38;9.13;;;;;;;;;;8310577;28;20380;-73
2020/12/14 13:08:01;;;;;;;24.42;10.32;;;;;;;;;;8274259;28;20378;-72
2020/12/14 13:12:05;;;;;;;37.28;14.95;;;;;;;;;;8306868;28;20488;-73
2020/12/14 13:16:08;;;;;;;24.77;13.05;;;;;;;;;;8309466;28;20075;-73
2020/12/14 13:20:11;;;;;;;24.52;13.05;;;;;;;;;;8309713;28;20074;-72
2020/12/14 13:24:16;;;;;;;36.15;14.88;;;;;;;;;;8309237;28;20421;-73
2020/12/14 13:28:19;;;;;;;31.40;14.27;;;;;;;;;;8308181;28;20458;-73
2020/12/14 13:32:22;;;;;;;27.42;13.23;;;;;;;;;;8309204;28;20051;-73
2020/12/14 13:36:40;;;;;;;34.45;12.52;;;;;;;;;;8309587;28;20375;-73
2020/12/14 13:40:43;;;;;;;31.50;13.57;;;;;;;;;;8309104;28;20374;-73
2020/12/14 13:44:48;;;;;;;30.23;13.23;;;;;;;;;;8309081;28;20074;-74
2020/12/14 13:48:51;;;;;;;35.15;13.48;;;;;;;;;;8308952;28;20530;-74
2020/12/14 13:52:54;;;;;;;34.10;14.75;;;;;;;;;;8288776;28;20052;-74
2020/12/14 13:56:58;;;;;;;23.48;10.95;;;;;;;;;;8308710;28;20492;-73
2020/12/14 14:01:01;;;;;;;155.27;56.70;;;;;;;;;;8269780;28;20044;-74
2020/12/14 14:05:05;;;;;;;85.05;32.42;;;;;;;;;;8210373;28;20376;-74
2020/12/14 14:09:09;;;;;;;54.67;23.00;;;;;;;;;;8170424;28;20491;-73
2020/12/14 14:13:12;;;;;;;26.98;12.00;;;;;;;;;;8172744;28;20050;-74
2020/12/14 14:17:15;;;;;;;25.45;11.80;;;;;;;;;;8203741;28;20385;-74
2020/12/14 14:21:19;;;;;;;28.52;12.35;;;;;;;;;;8204634;28;20447;-73
2020/12/14 14:25:22;;;;;;;59.03;18.15;;;;;;;;;;8171872;28;20443;-72
2020/12/14 14:29:26;;;;;;;58.60;16.90;;;;;;;;;;8205221;28;20069;-73
2020/12/14 14:33:32;;;;;;;107.35;25.63;;;;;;;;;;8269086;28;20390;-72
2020/12/14 14:37:39;;;;;;;71.20;19.98;;;;;;;;;;8261149;28;20394;-73
2020/12/14 14:41:47;;;;;;;44.15;15.02;;;;;;;;;;8263523;28;20379;-73
2020/12/14 14:45:50;;;;;;;42.80;16.25;;;;;;;;;;8255926;28;20639;-73
2020/12/14 14:49:53;;;;;;;27.65;11.57;;;;;;;;;;8239771;28;20411;-73
2020/12/14 14:53:58;;;;;;;29.65;13.32;;;;;;;;;;8274693;28;20356;-73
2020/12/14 14:58:04;;;;;;;31.70;14.63;;;;;;;;;;8271754;28;20075;-73
2020/12/14 15:02:08;;;;;;;41.70;16.50;;;;;;;;;;8236487;28;20356;-73
2020/12/14 15:06:11;;;;;;;47.50;17.80;;;;;;;;;;8203978;28;20667;-74
2020/12/14 15:10:14;;;;;;;212.23;48.85;;;;;;;;;;8205123;28;20494;-73
2020/12/14 15:14:18;;;;;;;65.97;23.50;;;;;;;;;;8235926;28;20473;-73
2020/12/14 15:18:21;;;;;;;34.92;15.48;;;;;;;;;;8234923;28;20375;-73
2020/12/14 15:22:25;;;;;;;37.08;15.65;;;;;;;;;;8203836;28;20379;-73
2020/12/14 15:26:28;;;;;;;56.35;21.65;;;;;;;;;;8235144;28;20053;-74
2020/12/14 15:30:32;;;;;;;69.97;25.30;;;;;;;;;;8203998;28;20045;-73
2020/12/14 15:34:35;;;;;;;35.17;15.18;;;;;;;;;;8203614;28;20545;-74
2020/12/14 15:38:39;;;;;;;156.68;43.67;;;;;;;;;;8254681;28;20048;-73
2020/12/14 15:42:43;;;;;;;153.35;42.70;;;;;;;;;;8259214;28;20052;-73
2020/12/14 15:46:49;;;;;;;154.07;43.95;;;;;;;;;;8284056;28;20485;-73
2020/12/14 15:50:53;;;;;;;337.67;100.38;;;;;;;;;;8293585;28;20048;-76
2020/12/14 15:54:57;;;;;;;34.95;14.65;;;;;;;;;;8312294;28;20377;-74
2020/12/14 15:59:06;;;;;;;31.25;15.27;;;;;;;;;;8312440;28;20507;-73
2020/12/14 16:03:11;;;;;;;30.55;15.00;;;;;;;;;;8324221;28;20048;-73
2020/12/14 16:07:17;;;;;;;94.55;40.75;;;;;;;;;;8274708;28;20074;-74
2020/12/14 16:11:22;;;;;;;74.07;28.90;;;;;;;;;;8251619;28;20067;-73
2020/12/14 16:15:25;;;;;;;31.48;13.63;;;;;;;;;;8287496;28;20506;-73
2020/12/14 16:19:30;;;;;;;31.90;15.73;;;;;;;;;;8267865;28;20425;-73
2020/12/14 16:23:37;;;;;;;28.25;14.50;;;;;;;;;;8288345;28;20368;-74
2020/12/14 16:27:45;;;;;;;27.90;12.85;;;;;;;;;;8231146;28;20075;-73
2020/12/14 16:31:48;;;;;;;27.53;14.27;;;;;;;;;;8241786;28;20626;-74
2020/12/14 16:35:52;;;;;;;37.38;15.07;;;;;;;;;;8240709;28;20048;-73
2020/12/14 16:39:56;;;;;;;26.25;12.25;;;;;;;;;;8258857;28;20056;-74
2020/12/14 16:44:00;;;;;;;20.80;12.25;;;;;;;;;;8261665;28;20489;-73
2020/12/14 16:48:04;;;;;;;30.95;12.63;;;;;;;;;;8257140;28;20078;-72
2020/12/14 16:52:08;;;;;;;33.55;13.00;;;;;;;;;;8258665;28;20286;-73
2020/12/14 16:56:12;;;;;;;32.50;15.68;;;;;;;;;;8240137;28;20664;-72
2020/12/14 17:00:15;;;;;;;29.73;14.77;;;;;;;;;;8240861;28;20053;-72
2020/12/14 17:04:22;;;;;;;29.75;14.15;;;;;;;;;;8259276;28;20497;-73
2020/12/14 17:08:35;;;;;;;28.77;14.35;;;;;;;;;;8242870;28;20724;-72
2020/12/14 17:12:39;;;;;;;59.88;23.33;;;;;;;;;;8240590;28;20549;-71
2020/12/14 17:16:47;;;;;;;41.53;18.50;;;;;;;;;;8257670;28;20360;-72
2020/12/14 17:20:52;;;;;;;67.90;27.42;;;;;;;;;;8261031;28;20448;-73
2020/12/14 17:24:57;;;;;;;68.35;28.08;;;;;;;;;;8292286;28;20390;-73
2020/12/14 17:29:03;;;;;;;63.30;30.25;;;;;;;;;;8259762;28;20048;-72
2020/12/14 17:33:08;;;;;;;56.28;22.88;;;;;;;;;;8240174;28;20478;-72
2020/12/14 17:37:15;;;;;;;45.72;17.67;;;;;;;;;;8239563;28;20270;-72
2020/12/14 17:41:19;;;;;;;52.00;21.77;;;;;;;;;;8258195;28;20109;-72
2020/12/14 17:45:25;;;;;;;1081.93;251.88;;;;;;;;;;8260672;28;21128;-71
2020/12/14 17:49:33;;;;;;;117.15;36.28;;;;;;;;;;8257461;28;20379;-73
2020/12/14 17:53:37;;;;;;;45.30;21.63;;;;;;;;;;8289759;28;20398;-73
2020/12/14 17:57:40;;;;;;;136.90;35.92;;;;;;;;;;8297093;28;20443;-72
2020/12/14 18:01:43;;;;;;;31.65;17.80;;;;;;;;;;8270537;28;20451;-72
2020/12/14 18:05:47;;;;;;;234.82;48.85;;;;;;;;;;8281997;28;20048;-73
2020/12/14 18:09:53;;;;;;;85.22;24.40;;;;;;;;;;8269227;28;20351;-73
2020/12/14 18:13:56;;;;;;;296.67;63.47;;;;;;;;;;8279095;28;20475;-71
2020/12/14 18:18:38;;;;;;;1243.32;290.23;;;;;;;;;;8266261;28;20286;-72
2020/12/14 18:22:41;;;;;;;1131.60;266.80;;;;;;;;;;8266723;28;20370;-72
2020/12/14 18:26:44;;;;;;;104.60;32.65;;;;;;;;;;8268263;28;20481;-73
2020/12/14 18:30:54;;;;;;;572.25;124.93;;;;;;;;;;8268303;28;20072;-73
2020/12/14 21:24:11;;;;;;;185.07;41.92;;;;;;;;;;8227989;28;20561;-74
2020/12/14 21:28:18;;;;;;;1999.90;634.40;;;;;;;;;;8322765;28;20459;-74
2020/12/14 21:32:23;;;;;;;320.25;78.35;;;;;;;;;;8321621;28;20064;-74
2020/12/14 21:36:31;;;;;;;903.28;218.75;;;;;;;;;;8322621;28;20463;-74
2020/12/14 21:40:34;;;;;;;1794.85;425.02;;;;;;;;;;8323601;28;20496;-74
2020/12/14 21:44:37;;;;;;;375.55;81.07;;;;;;;;;;8322912;28;20378;-74
2020/12/14 21:48:40;;;;;;;94.03;26.50;;;;;;;;;;8321923;28;20470;-74
2020/12/14 21:52:44;;;;;;;95.75;25.10;;;;;;;;;;8323706;28;20081;-74
2020/12/14 21:56:49;;;;;;;1580.75;347.70;;;;;;;;;;8322376;28;20486;-74
2020/12/14 22:00:52;;;;;;;173.18;36.25;;;;;;;;;;8321569;28;20482;-74
2020/12/14 22:04:55;;;;;;;197.10;25.58;;;;;;;;;;8321962;28;20352;-74
2020/12/14 22:08:58;;;;;;;534.17;99.45;;;;;;;;;;8323374;28;20489;-74
2020/12/14 22:13:01;;;;;;;533.47;99.93;;;;;;;;;;8323041;28;20382;-73
2020/12/14 22:17:05;;;;;;;136.57;27.30;;;;;;;;;;8321151;28;20377;-73
2020/12/14 22:21:08;;;;;;;653.33;136.95;;;;;;;;;;8321256;28;20043;-74
2020/12/14 22:25:12;;;;;;;741.00;174.80;;;;;;;;;;8305068;28;20458;-74
2020/12/14 22:29:16;;;;;;;695.10;156.80;;;;;;;;;;8323045;28;20504;-74
2020/12/14 22:33:19;;;;;;;386.48;73.78;;;;;;;;;;8320938;28;20478;-74
2020/12/14 22:37:22;;;;;;;259.13;37.92;;;;;;;;;;8322652;28;20413;-74
2020/12/14 22:41:29;;;;;;;174.77;21.05;;;;;;;;;;8322087;28;20491;-74
2020/12/14 22:45:31;;;;;;;118.90;19.95;;;;;;;;;;8322307;28;20370;-74
2020/12/14 22:49:38;;;;;;;142.98;21.23;;;;;;;;;;8320674;28;20477;-74
2020/12/14 22:53:45;;;;;;;388.77;55.03;;;;;;;;;;8322889;28;20478;-74
2020/12/14 22:57:48;;;;;;;179.48;23.60;;;;;;;;;;8320646;28;20374;-74
2020/12/14 23:01:58;;;;;;;242.63;26.67;;;;;;;;;;8314022;28;20494;-74
2020/12/14 23:06:01;;;;;;;625.67;148.90;;;;;;;;;;8287384;28;20409;-75
2020/12/14 23:10:04;;;;;;;492.08;120.53;;;;;;;;;;8254099;28;20478;-74
2020/12/14 23:14:08;;;;;;;211.63;44.20;;;;;;;;;;8289001;28;20489;-74
2020/12/14 23:18:11;;;;;;;127.25;22.17;;;;;;;;;;8287299;28;20473;-74
2020/12/14 23:22:14;;;;;;;564.05;119.55;;;;;;;;;;8288731;28;20479;-74
2020/12/14 23:26:21;;;;;;;223.73;39.00;;;;;;;;;;8287222;28;20517;-73
2020/12/14 23:30:25;;;;;;;222.52;37.50;;;;;;;;;;8288816;28;20352;-73
2020/12/14 23:34:28;;;;;;;183.90;27.30;;;;;;;;;;8288729;28;20078;-73
2020/12/14 23:38:31;;;;;;;166.88;19.38;;;;;;;;;;8288445;28;20482;-74
2020/12/14 23:42:34;;;;;;;228.27;23.02;;;;;;;;;;8286530;28;20378;-74
2020/12/14 23:46:38;;;;;;;215.95;35.95;;;;;;;;;;8288470;28;20475;-74
2020/12/14 23:50:43;;;;;;;153.77;19.98;;;;;;;;;;8287144;28;20382;-74
2020/12/14 23:54:46;;;;;;;177.82;19.60;;;;;;;;;;8286815;28;20471;-74
2020/12/14 23:58:51;;;;;;;204.10;24.95;;;;;;;;;;8294002;28;20478;-73
